createdAt,value
2017-05-19T00:00:04.972Z,21.02
2017-05-19T00:00:45.574Z,20.99
2017-05-19T00:01:26.150Z,21.07
2017-05-19T00:02:06.762Z,21.03
2017-05-19T00:02:47.374Z,21.03
2017-05-19T00:03:27.989Z,20.97
2017-05-19T00:04:08.587Z,21.02
2017-05-19T00:04:49.213Z,21.03
2017-05-19T00:05:29.792Z,21
2017-05-19T00:06:10.383Z,20.93
2017-05-19T00:06:50.990Z,20.87
2017-05-19T00:07:31.582Z,20.99
2017-05-19T00:08:12.199Z,20.93
2017-05-19T00:08:52.794Z,20.97
2017-05-19T00:09:33.388Z,20.97
2017-05-19T00:10:13.982Z,20.87
2017-05-19T00:10:54.572Z,20.85
2017-05-19T00:11:35.157Z,20.99
2017-05-19T00:12:15.754Z,20.95
2017-05-19T00:12:56.318Z,20.85
2017-05-19T00:13:36.912Z,20.93
2017-05-19T00:14:17.512Z,20.99
2017-05-19T00:14:58.104Z,20.87
2017-05-19T00:15:38.703Z,20.93
2017-05-19T00:16:19.281Z,21.02
2017-05-19T00:16:59.941Z,20.93
2017-05-19T00:17:40.487Z,20.85
2017-05-19T00:18:21.069Z,20.93
2017-05-19T00:19:01.650Z,20.97
2017-05-19T00:19:42.237Z,20.96
2017-05-19T00:20:22.827Z,20.95
2017-05-19T00:21:03.437Z,20.93
2017-05-19T00:21:44.030Z,20.84
2017-05-19T00:22:24.659Z,20.92
2017-05-19T00:23:05.192Z,20.92
2017-05-19T00:23:45.769Z,20.87
2017-05-19T00:24:26.360Z,20.85
2017-05-19T00:25:06.955Z,20.9
2017-05-19T00:25:47.573Z,20.85
2017-05-19T00:26:28.189Z,20.84
2017-05-19T00:27:08.774Z,20.82
2017-05-19T00:27:49.375Z,20.82
2017-05-19T00:28:29.946Z,20.82
2017-05-19T00:29:10.632Z,20.75
2017-05-19T00:29:51.252Z,20.69
2017-05-19T00:30:31.827Z,20.67
2017-05-19T00:31:12.446Z,20.74
2017-05-19T00:31:53.070Z,20.7
2017-05-19T00:32:33.689Z,20.7
2017-05-19T00:33:14.311Z,20.67
2017-05-19T00:33:54.894Z,20.69
2017-05-19T00:34:35.478Z,20.6
2017-05-19T00:35:16.052Z,20.63
2017-05-19T00:35:56.643Z,20.59
2017-05-19T00:36:37.226Z,20.59
2017-05-19T00:37:17.813Z,20.59
2017-05-19T00:37:58.400Z,20.58
2017-05-19T00:38:38.970Z,20.56
2017-05-19T00:39:19.558Z,20.52
2017-05-19T00:40:00.129Z,20.55
2017-05-19T00:40:40.712Z,20.62
2017-05-19T00:41:21.290Z,20.51
2017-05-19T00:42:01.901Z,20.55
2017-05-19T00:42:42.489Z,20.51
2017-05-19T00:43:23.086Z,20.51
2017-05-19T00:44:03.721Z,20.51
2017-05-19T00:44:44.285Z,20.48
2017-05-19T00:45:24.878Z,20.5
2017-05-19T00:46:05.490Z,20.5
2017-05-19T00:46:46.134Z,20.52
2017-05-19T00:47:26.714Z,20.47
2017-05-19T00:48:07.304Z,20.47
2017-05-19T00:48:47.895Z,20.37
2017-05-19T00:49:28.473Z,20.52
2017-05-19T00:50:09.059Z,20.47
2017-05-19T00:50:49.639Z,20.48
2017-05-19T00:51:30.203Z,20.41
2017-05-19T00:52:11.385Z,20.44
2017-05-19T00:52:51.971Z,20.39
2017-05-19T00:53:32.574Z,20.4
2017-05-19T00:54:13.163Z,20.4
2017-05-19T00:54:53.758Z,20.29
2017-05-19T00:55:34.354Z,20.29
2017-05-19T00:56:14.932Z,20.31
2017-05-19T00:56:55.516Z,20.36
2017-05-19T00:57:36.113Z,20.4
2017-05-19T00:58:16.670Z,20.41
2017-05-19T00:58:57.263Z,20.37
2017-05-19T00:59:37.854Z,20.48
2017-05-19T01:00:18.441Z,20.41
2017-05-19T01:00:59.013Z,20.32
2017-05-19T01:01:39.621Z,20.4
2017-05-19T01:02:20.197Z,20.43
2017-05-19T01:03:00.774Z,20.26
2017-05-19T01:03:41.362Z,20.28
2017-05-19T01:04:21.944Z,20.39
2017-05-19T01:05:02.564Z,20.4
2017-05-19T01:05:43.155Z,20.32
2017-05-19T01:06:23.791Z,20.43
2017-05-19T01:07:04.357Z,20.36
2017-05-19T01:07:44.942Z,20.29
2017-05-19T01:08:25.526Z,20.25
2017-05-19T01:09:06.108Z,20.29
2017-05-19T01:09:46.750Z,20.29
2017-05-19T01:10:27.338Z,20.32
2017-05-19T01:11:07.936Z,20.28
2017-05-19T01:11:48.535Z,20.32
2017-05-19T01:12:29.138Z,20.34
2017-05-19T01:13:09.753Z,20.26
2017-05-19T01:13:50.344Z,20.31
2017-05-19T01:14:30.909Z,20.28
2017-05-19T01:15:11.540Z,20.29
2017-05-19T01:15:52.136Z,20.25
2017-05-19T01:16:32.720Z,20.26
2017-05-19T01:17:13.306Z,20.16
2017-05-19T01:17:53.909Z,20.19
2017-05-19T01:18:34.498Z,20.31
2017-05-19T01:19:15.072Z,20.19
2017-05-19T01:19:55.687Z,20.31
2017-05-19T01:20:36.267Z,20.24
2017-05-19T01:21:16.844Z,20.34
2017-05-19T01:21:57.421Z,20.18
2017-05-19T01:22:38.012Z,20.22
2017-05-19T01:23:18.648Z,20.26
2017-05-19T01:23:59.245Z,20.24
2017-05-19T01:24:39.821Z,20.28
2017-05-19T01:25:20.381Z,20.19
2017-05-19T01:26:00.959Z,20.22
2017-05-19T01:26:41.548Z,20.28
2017-05-19T01:27:22.167Z,20.29
2017-05-19T01:28:02.792Z,20.19
2017-05-19T01:28:43.404Z,20.26
2017-05-19T01:29:24.024Z,20.24
2017-05-19T01:30:04.650Z,20.36
2017-05-19T01:30:45.225Z,20.25
2017-05-19T01:31:25.805Z,20.28
2017-05-19T01:32:06.405Z,20.22
2017-05-19T01:32:46.976Z,20.26
2017-05-19T01:33:27.547Z,20.28
2017-05-19T01:34:08.159Z,20.24
2017-05-19T01:34:48.752Z,20.29
2017-05-19T01:35:29.352Z,20.32
2017-05-19T01:36:09.912Z,20.24
2017-05-19T01:36:50.493Z,20.25
2017-05-19T01:37:31.110Z,20.31
2017-05-19T01:38:11.691Z,20.21
2017-05-19T01:38:52.299Z,20.22
2017-05-19T01:39:32.845Z,20.29
2017-05-19T01:40:13.423Z,20.28
2017-05-19T01:40:54.012Z,20.28
2017-05-19T01:41:34.607Z,20.29
2017-05-19T01:42:15.214Z,20.22
2017-05-19T01:42:55.801Z,20.22
2017-05-19T01:43:36.401Z,20.14
2017-05-19T01:44:17.012Z,20.22
2017-05-19T01:44:57.582Z,20.34
2017-05-19T01:45:38.199Z,20.19
2017-05-19T01:46:18.772Z,20.22
2017-05-19T01:46:59.375Z,20.28
2017-05-19T01:47:39.955Z,20.26
2017-05-19T01:48:20.558Z,20.11
2017-05-19T01:49:01.156Z,20.34
2017-05-19T01:49:41.743Z,20.19
2017-05-19T01:50:22.328Z,20.29
2017-05-19T01:51:02.913Z,20.14
2017-05-19T01:51:43.502Z,20.28
2017-05-19T01:52:24.083Z,20.21
2017-05-19T01:53:04.692Z,20.21
2017-05-19T01:53:45.272Z,20.18
2017-05-19T01:54:25.842Z,20.21
2017-05-19T01:55:06.423Z,20.09
2017-05-19T01:55:47.024Z,20.24
2017-05-19T01:56:27.628Z,20.14
2017-05-19T01:57:08.234Z,20.13
2017-05-19T01:57:48.853Z,20.11
2017-05-19T01:58:29.408Z,20.1
2017-05-19T01:59:09.995Z,20.16
2017-05-19T01:59:50.595Z,20.06
2017-05-19T02:00:31.184Z,20.06
2017-05-19T02:01:11.815Z,20.07
2017-05-19T02:01:52.442Z,20.1
2017-05-19T02:02:33.039Z,20.03
2017-05-19T02:03:13.675Z,20.09
2017-05-19T02:03:54.285Z,20.11
2017-05-19T02:04:34.878Z,20.14
2017-05-19T02:05:15.504Z,20.03
2017-05-19T02:05:56.096Z,20.03
2017-05-19T02:06:36.722Z,20.03
2017-05-19T02:07:17.314Z,20.03
2017-05-19T02:07:57.885Z,20.06
2017-05-19T02:08:38.514Z,20.02
2017-05-19T02:09:19.074Z,19.92
2017-05-19T02:09:59.679Z,19.94
2017-05-19T02:10:40.277Z,19.94
2017-05-19T02:11:20.866Z,19.88
2017-05-19T02:12:01.442Z,20
2017-05-19T02:12:42.097Z,19.91
2017-05-19T02:13:22.728Z,19.95
2017-05-19T02:14:03.424Z,19.94
2017-05-19T02:14:43.971Z,19.84
2017-05-19T02:15:24.619Z,19.88
2017-05-19T02:16:05.280Z,19.84
2017-05-19T02:16:45.829Z,19.81
2017-05-19T02:17:26.450Z,19.85
2017-05-19T02:18:07.013Z,19.86
2017-05-19T02:18:47.612Z,19.86
2017-05-19T02:19:28.233Z,19.89
2017-05-19T02:20:08.814Z,19.92
2017-05-19T02:20:49.506Z,19.88
2017-05-19T02:21:30.097Z,19.86
2017-05-19T02:22:10.702Z,19.91
2017-05-19T02:22:51.269Z,19.92
2017-05-19T02:23:31.861Z,19.84
2017-05-19T02:24:12.439Z,19.86
2017-05-19T02:24:53.061Z,19.92
2017-05-19T02:25:33.664Z,19.91
2017-05-19T02:26:14.252Z,19.86
2017-05-19T02:26:54.854Z,19.84
2017-05-19T02:27:35.432Z,19.88
2017-05-19T02:28:16.010Z,19.77
2017-05-19T02:28:56.618Z,19.92
2017-05-19T02:29:37.198Z,19.84
2017-05-19T02:30:17.765Z,19.86
2017-05-19T02:30:58.376Z,19.79
2017-05-19T02:31:38.945Z,19.89
2017-05-19T02:32:19.598Z,19.84
2017-05-19T02:33:00.186Z,19.79
2017-05-19T02:33:40.815Z,19.84
2017-05-19T02:34:21.406Z,19.86
2017-05-19T02:35:02.005Z,19.84
2017-05-19T02:35:42.573Z,19.77
2017-05-19T02:36:23.163Z,19.69
2017-05-19T02:37:03.771Z,19.76
2017-05-19T02:37:44.366Z,19.79
2017-05-19T02:38:24.980Z,19.81
2017-05-19T02:39:05.574Z,19.73
2017-05-19T02:39:46.148Z,19.73
2017-05-19T02:40:26.738Z,19.71
2017-05-19T02:41:07.339Z,19.76
2017-05-19T02:41:47.933Z,19.76
2017-05-19T02:42:28.512Z,19.66
2017-05-19T02:43:09.083Z,19.7
2017-05-19T02:43:49.666Z,19.66
2017-05-19T02:44:30.251Z,19.67
2017-05-19T02:45:10.895Z,19.56
2017-05-19T02:45:51.526Z,19.69
2017-05-19T02:46:32.096Z,19.58
2017-05-19T02:47:12.748Z,19.59
2017-05-19T02:47:53.330Z,19.62
2017-05-19T02:48:33.930Z,19.64
2017-05-19T02:49:14.518Z,19.63
2017-05-19T02:49:55.111Z,19.55
2017-05-19T02:50:35.696Z,19.56
2017-05-19T02:51:16.268Z,19.55
2017-05-19T02:51:56.863Z,19.56
2017-05-19T02:52:37.438Z,19.45
2017-05-19T02:53:18.018Z,19.54
2017-05-19T02:53:58.606Z,19.64
2017-05-19T02:54:39.189Z,19.59
2017-05-19T02:55:19.766Z,19.47
2017-05-19T02:56:00.367Z,19.51
2017-05-19T02:56:40.981Z,19.52
2017-05-19T02:57:21.598Z,19.47
2017-05-19T02:58:02.193Z,19.52
2017-05-19T02:58:42.774Z,19.51
2017-05-19T02:59:23.374Z,19.49
2017-05-19T03:00:03.988Z,19.41
2017-05-19T03:00:44.602Z,19.48
2017-05-19T03:01:25.187Z,19.54
2017-05-19T03:02:05.789Z,19.44
2017-05-19T03:02:46.392Z,19.51
2017-05-19T03:03:26.983Z,19.49
2017-05-19T03:04:07.575Z,19.44
2017-05-19T03:04:48.179Z,19.44
2017-05-19T03:05:28.785Z,19.4
2017-05-19T03:06:09.359Z,19.37
2017-05-19T03:06:49.957Z,19.31
2017-05-19T03:07:30.548Z,19.4
2017-05-19T03:08:11.152Z,19.39
2017-05-19T03:08:51.757Z,19.37
2017-05-19T03:09:32.352Z,19.26
2017-05-19T03:10:12.959Z,19.34
2017-05-19T03:10:53.563Z,19.34
2017-05-19T03:11:34.162Z,19.3
2017-05-19T03:12:14.770Z,19.3
2017-05-19T03:12:55.399Z,19.26
2017-05-19T03:13:35.978Z,19.3
2017-05-19T03:14:16.555Z,19.29
2017-05-19T03:14:57.198Z,19.22
2017-05-19T03:15:37.779Z,19.3
2017-05-19T03:16:18.389Z,19.27
2017-05-19T03:16:58.976Z,19.29
2017-05-19T03:17:39.581Z,19.27
2017-05-19T03:18:20.245Z,19.24
2017-05-19T03:19:00.788Z,19.19
2017-05-19T03:19:41.356Z,19.24
2017-05-19T03:20:21.943Z,19.31
2017-05-19T03:21:02.543Z,19.3
2017-05-19T03:21:43.123Z,19.27
2017-05-19T03:22:23.716Z,19.21
2017-05-19T03:23:04.328Z,19.33
2017-05-19T03:23:44.951Z,19.3
2017-05-19T03:24:25.536Z,19.33
2017-05-19T03:25:06.161Z,19.29
2017-05-19T03:25:46.775Z,19.33
2017-05-19T03:26:27.392Z,19.29
2017-05-19T03:27:08.000Z,19.3
2017-05-19T03:27:48.570Z,19.27
2017-05-19T03:28:29.214Z,19.22
2017-05-19T03:29:09.739Z,19.29
2017-05-19T03:29:50.348Z,19.19
2017-05-19T03:30:30.964Z,19.26
2017-05-19T03:31:11.535Z,19.26
2017-05-19T03:31:52.121Z,19.21
2017-05-19T03:32:32.702Z,19.29
2017-05-19T03:33:13.273Z,19.15
2017-05-19T03:33:53.863Z,19.3
2017-05-19T03:34:34.441Z,19.22
2017-05-19T03:35:15.062Z,19.24
2017-05-19T03:35:55.659Z,19.24
2017-05-19T03:36:36.237Z,19.19
2017-05-19T03:37:16.814Z,19.16
2017-05-19T03:37:57.441Z,19.19
2017-05-19T03:38:38.017Z,19.22
2017-05-19T03:39:18.608Z,19.21
2017-05-19T03:39:59.190Z,19.21
2017-05-19T03:40:39.817Z,19.29
2017-05-19T03:41:20.399Z,19.18
2017-05-19T03:42:00.973Z,19.24
2017-05-19T03:42:41.596Z,19.29
2017-05-19T03:43:22.189Z,19.26
2017-05-19T03:44:02.772Z,19.31
2017-05-19T03:44:43.347Z,19.22
2017-05-19T03:45:23.934Z,19.26
2017-05-19T03:46:04.519Z,19.21
2017-05-19T03:46:45.123Z,19.22
2017-05-19T03:47:25.775Z,19.27
2017-05-19T03:48:06.300Z,19.14
2017-05-19T03:48:46.888Z,19.24
2017-05-19T03:49:27.517Z,19.24
2017-05-19T03:50:08.121Z,19.24
2017-05-19T03:50:48.696Z,19.16
2017-05-19T03:51:29.321Z,19.26
2017-05-19T03:52:09.863Z,19.16
2017-05-19T03:52:50.460Z,19.26
2017-05-19T03:53:31.032Z,19.27
2017-05-19T03:54:11.665Z,19.22
2017-05-19T03:54:52.263Z,19.3
2017-05-19T03:55:32.888Z,19.26
2017-05-19T03:56:13.442Z,19.3
2017-05-19T03:56:54.034Z,19.31
2017-05-19T03:57:34.617Z,19.31
2017-05-19T03:58:15.196Z,19.31
2017-05-19T03:58:55.862Z,19.31
2017-05-19T03:59:36.407Z,19.29
2017-05-19T04:00:16.988Z,19.26
2017-05-19T04:00:57.564Z,19.34
2017-05-19T04:01:38.189Z,19.27
2017-05-19T04:02:18.782Z,19.29
2017-05-19T04:02:59.361Z,19.31
2017-05-19T04:03:39.942Z,19.3
2017-05-19T04:04:20.523Z,19.3
2017-05-19T04:05:01.114Z,19.37
2017-05-19T04:05:41.717Z,19.29
2017-05-19T04:06:22.317Z,19.26
2017-05-19T04:07:02.904Z,19.3
2017-05-19T04:07:43.474Z,19.3
2017-05-19T04:08:24.084Z,19.27
2017-05-19T04:09:04.654Z,19.3
2017-05-19T04:09:45.304Z,19.24
2017-05-19T04:10:25.883Z,19.34
2017-05-19T04:11:06.475Z,19.33
2017-05-19T04:11:47.069Z,19.34
2017-05-19T04:12:27.653Z,19.36
2017-05-19T04:13:08.233Z,19.27
2017-05-19T04:13:48.829Z,19.33
2017-05-19T04:14:29.428Z,19.34
2017-05-19T04:15:10.038Z,19.4
2017-05-19T04:15:50.639Z,19.33
2017-05-19T04:16:31.210Z,19.34
2017-05-19T04:17:11.785Z,19.39
2017-05-19T04:17:52.360Z,19.33
2017-05-19T04:18:32.964Z,19.34
2017-05-19T04:19:13.540Z,19.33
2017-05-19T04:19:54.145Z,19.41
2017-05-19T04:20:34.710Z,19.44
2017-05-19T04:21:15.287Z,19.37
2017-05-19T04:21:55.876Z,19.39
2017-05-19T04:22:36.471Z,19.44
2017-05-19T04:23:17.066Z,19.47
2017-05-19T04:23:57.679Z,19.39
2017-05-19T04:24:38.259Z,19.44
2017-05-19T04:25:18.849Z,19.39
2017-05-19T04:25:59.454Z,19.34
2017-05-19T04:26:40.028Z,19.39
2017-05-19T04:27:20.622Z,19.41
2017-05-19T04:28:01.242Z,19.47
2017-05-19T04:28:41.807Z,19.39
2017-05-19T04:29:22.387Z,19.44
2017-05-19T04:30:03.038Z,19.48
2017-05-19T04:30:43.653Z,19.45
2017-05-19T04:31:24.255Z,19.44
2017-05-19T04:32:04.838Z,19.39
2017-05-19T04:32:45.440Z,19.49
2017-05-19T04:33:26.023Z,19.4
2017-05-19T04:34:06.596Z,19.4
2017-05-19T04:34:47.194Z,19.48
2017-05-19T04:35:27.801Z,19.44
2017-05-19T04:36:08.374Z,19.49
2017-05-19T04:36:48.956Z,19.44
2017-05-19T04:37:29.558Z,19.54
2017-05-19T04:38:10.157Z,19.4
2017-05-19T04:38:50.748Z,19.44
2017-05-19T04:39:31.352Z,19.48
2017-05-19T04:40:11.934Z,19.47
2017-05-19T04:40:52.527Z,19.44
2017-05-19T04:41:33.112Z,19.36
2017-05-19T04:42:13.696Z,19.37
2017-05-19T04:42:54.298Z,19.41
2017-05-19T04:43:34.855Z,19.41
2017-05-19T04:44:15.433Z,19.51
2017-05-19T04:44:56.030Z,19.45
2017-05-19T04:45:36.619Z,19.44
2017-05-19T04:46:17.204Z,19.48
2017-05-19T04:46:57.826Z,19.54
2017-05-19T04:47:38.422Z,19.47
2017-05-19T04:48:19.010Z,19.51
2017-05-19T04:48:59.605Z,19.56
2017-05-19T04:49:40.236Z,19.54
2017-05-19T04:50:20.834Z,19.51
2017-05-19T04:51:01.415Z,19.54
2017-05-19T04:51:42.005Z,19.59
2017-05-19T04:52:22.568Z,19.54
2017-05-19T04:53:03.185Z,19.47
2017-05-19T04:53:43.745Z,19.49
2017-05-19T04:54:24.347Z,19.55
2017-05-19T04:55:04.967Z,19.56
2017-05-19T04:55:45.553Z,19.58
2017-05-19T04:56:26.150Z,19.66
2017-05-19T04:57:06.748Z,19.63
2017-05-19T04:57:47.453Z,19.54
2017-05-19T04:58:28.010Z,19.55
2017-05-19T04:59:08.598Z,19.64
2017-05-19T04:59:49.179Z,19.64
2017-05-19T05:00:29.794Z,19.67
2017-05-19T05:01:10.389Z,19.67
2017-05-19T05:01:50.989Z,19.62
2017-05-19T05:02:31.649Z,19.59
2017-05-19T05:03:12.189Z,19.66
2017-05-19T05:03:52.840Z,19.69
2017-05-19T05:04:33.527Z,19.64
2017-05-19T05:05:14.084Z,19.76
2017-05-19T05:05:54.677Z,19.69
2017-05-19T05:06:35.282Z,19.71
2017-05-19T05:07:15.886Z,19.74
2017-05-19T05:07:56.479Z,19.71
2017-05-19T05:08:37.067Z,19.73
2017-05-19T05:09:17.681Z,19.71
2017-05-19T05:09:58.289Z,19.73
2017-05-19T05:10:38.878Z,19.74
2017-05-19T05:11:19.482Z,19.7
2017-05-19T05:12:00.117Z,19.63
2017-05-19T05:12:40.696Z,19.62
2017-05-19T05:13:21.342Z,19.73
2017-05-19T05:14:01.945Z,19.69
2017-05-19T05:14:42.586Z,19.71
2017-05-19T05:15:23.180Z,19.7
2017-05-19T05:16:03.821Z,19.71
2017-05-19T05:16:44.405Z,19.7
2017-05-19T05:17:24.996Z,19.73
2017-05-19T05:18:05.559Z,19.71
2017-05-19T05:18:46.141Z,19.79
2017-05-19T05:19:26.755Z,19.79
2017-05-19T05:20:07.352Z,19.77
2017-05-19T05:20:48.017Z,19.74
2017-05-19T05:21:28.554Z,19.74
2017-05-19T05:22:09.155Z,19.69
2017-05-19T05:22:49.736Z,19.76
2017-05-19T05:23:30.397Z,19.88
2017-05-19T05:24:10.968Z,19.89
2017-05-19T05:24:51.558Z,19.86
2017-05-19T05:25:32.343Z,19.86
2017-05-19T05:26:12.921Z,20
2017-05-19T05:26:53.505Z,19.94
2017-05-19T05:27:34.109Z,20.03
2017-05-19T05:28:14.706Z,19.92
2017-05-19T05:28:55.302Z,20.09
2017-05-19T05:29:35.880Z,20.18
2017-05-19T05:30:16.453Z,20.14
2017-05-19T05:30:57.019Z,20.18
2017-05-19T05:31:37.615Z,20.24
2017-05-19T05:32:18.193Z,20.37
2017-05-19T05:32:58.777Z,20.39
2017-05-19T05:33:39.359Z,20.5
2017-05-19T05:34:19.926Z,20.52
2017-05-19T05:35:00.534Z,20.62
2017-05-19T05:35:41.137Z,20.66
2017-05-19T05:36:21.725Z,20.75
2017-05-19T05:37:02.326Z,20.82
2017-05-19T05:37:42.902Z,20.84
2017-05-19T05:38:23.538Z,20.82
2017-05-19T05:39:04.132Z,21
2017-05-19T05:39:44.742Z,21.07
2017-05-19T05:40:25.347Z,21.15
2017-05-19T05:41:06.030Z,21.25
2017-05-19T05:41:46.639Z,21.36
2017-05-19T05:42:27.255Z,21.45
2017-05-19T05:43:07.885Z,21.46
2017-05-19T05:43:48.504Z,21.54
2017-05-19T05:44:29.088Z,21.66
2017-05-19T05:45:09.664Z,21.66
2017-05-19T05:45:50.273Z,21.75
2017-05-19T05:46:30.878Z,21.79
2017-05-19T05:47:11.455Z,21.91
2017-05-19T05:47:52.061Z,21.98
2017-05-19T05:48:32.639Z,22.08
2017-05-19T05:49:13.226Z,22.13
2017-05-19T05:49:53.804Z,22.3
2017-05-19T05:50:34.387Z,22.41
2017-05-19T05:51:15.000Z,22.45
2017-05-19T05:51:55.596Z,22.44
2017-05-19T05:52:36.223Z,22.48
2017-05-19T05:53:16.841Z,22.57
2017-05-19T05:53:57.475Z,22.73
2017-05-19T05:54:38.077Z,22.78
2017-05-19T05:55:18.655Z,22.83
2017-05-19T05:55:59.245Z,22.9
2017-05-19T05:56:39.830Z,22.94
2017-05-19T05:57:20.421Z,23.06
2017-05-19T05:58:01.004Z,23.09
2017-05-19T05:58:41.587Z,23.2
2017-05-19T05:59:22.241Z,23.17
2017-05-19T06:00:02.828Z,23.25
2017-05-19T06:00:43.423Z,23.18
2017-05-19T06:01:24.030Z,23.24
2017-05-19T06:02:04.654Z,23.31
2017-05-19T06:02:45.277Z,23.34
2017-05-19T06:03:25.862Z,23.31
2017-05-19T06:04:06.435Z,23.37
2017-05-19T06:04:47.059Z,23.54
2017-05-19T06:05:27.645Z,23.51
2017-05-19T06:06:08.267Z,23.66
2017-05-19T06:06:48.847Z,23.65
2017-05-19T06:07:29.460Z,23.66
2017-05-19T06:08:10.076Z,23.74
2017-05-19T06:08:50.757Z,23.73
2017-05-19T06:09:31.407Z,23.86
2017-05-19T06:10:12.045Z,23.86
2017-05-19T06:10:52.667Z,24.02
2017-05-19T06:11:33.252Z,23.99
2017-05-19T06:12:13.896Z,24.06
2017-05-19T06:12:54.485Z,24.14
2017-05-19T06:13:35.095Z,24.18
2017-05-19T06:14:15.754Z,24.23
2017-05-19T06:14:56.367Z,24.21
2017-05-19T06:15:36.966Z,24.33
2017-05-19T06:16:17.544Z,24.39
2017-05-19T06:16:58.133Z,24.4
2017-05-19T06:17:38.720Z,24.48
2017-05-19T06:18:19.311Z,24.54
2017-05-19T06:18:59.921Z,24.65
2017-05-19T06:19:40.545Z,24.65
2017-05-19T06:20:21.152Z,24.65
2017-05-19T06:21:01.749Z,24.74
2017-05-19T06:21:42.367Z,24.84
2017-05-19T06:22:22.973Z,24.8
2017-05-19T06:23:03.600Z,24.89
2017-05-19T06:23:44.456Z,24.92
2017-05-19T06:24:25.056Z,25.03
2017-05-19T06:25:05.655Z,25.04
2017-05-19T06:25:46.260Z,25.13
2017-05-19T06:26:27.304Z,25.11
2017-05-19T06:27:07.925Z,25.16
2017-05-19T06:27:48.583Z,25.16
2017-05-19T06:28:29.224Z,25.29
2017-05-19T06:29:09.820Z,25.26
2017-05-19T06:29:50.467Z,25.31
2017-05-19T06:30:31.068Z,25.38
2017-05-19T06:31:11.660Z,25.4
2017-05-19T06:31:52.287Z,25.44
2017-05-19T06:32:32.896Z,25.53
2017-05-19T06:33:14.430Z,25.53
2017-05-19T06:33:54.396Z,25.54
2017-05-19T06:34:35.038Z,25.6
2017-05-19T06:36:27.941Z,25.65
2017-05-19T06:37:08.555Z,25.62
2017-05-19T06:37:49.141Z,25.63
2017-05-19T06:38:29.749Z,25.69
2017-05-19T06:39:10.354Z,25.65
2017-05-19T06:39:50.952Z,25.7
2017-05-19T06:40:31.558Z,25.75
2017-05-19T06:41:12.168Z,25.78
2017-05-19T06:41:52.786Z,25.7
2017-05-19T06:42:33.386Z,25.73
2017-05-19T06:43:14.015Z,25.81
2017-05-19T06:43:54.629Z,25.83
2017-05-19T06:44:35.242Z,25.9
2017-05-19T06:45:15.847Z,25.93
2017-05-19T06:45:56.449Z,25.9
2017-05-19T06:46:37.074Z,25.91
2017-05-19T06:47:17.679Z,25.96
2017-05-19T06:47:58.309Z,26.02
2017-05-19T06:48:38.942Z,26.07
2017-05-19T06:49:19.562Z,26.09
2017-05-19T06:50:00.193Z,26.19
2017-05-19T06:50:40.784Z,26.1
2017-05-19T06:51:21.380Z,26.06
2017-05-19T06:52:02.034Z,26.07
2017-05-19T06:52:42.632Z,26.05
2017-05-19T06:53:23.252Z,26.02
2017-05-19T06:54:03.867Z,26.05
2017-05-19T06:54:44.474Z,25.99
2017-05-19T06:55:25.080Z,25.99
2017-05-19T06:56:05.679Z,26.06
2017-05-19T06:56:46.273Z,26.02
2017-05-19T06:57:26.913Z,26.13
2017-05-19T06:58:07.539Z,26.06
2017-05-19T06:58:48.129Z,26.09
2017-05-19T06:59:28.757Z,26.15
2017-05-19T07:00:09.372Z,26.18
2017-05-19T07:00:49.984Z,26.23
2017-05-19T07:01:30.605Z,26.13
2017-05-19T07:02:11.258Z,26.16
2017-05-19T07:02:51.863Z,26.33
2017-05-19T07:03:32.460Z,26.26
2017-05-19T07:04:13.070Z,26.36
2017-05-19T07:04:53.717Z,26.4
2017-05-19T07:05:34.329Z,26.4
2017-05-19T07:06:14.907Z,26.38
2017-05-19T07:06:55.519Z,26.4
2017-05-19T07:07:36.122Z,26.36
2017-05-19T07:08:16.745Z,26.51
2017-05-19T07:08:57.390Z,26.53
2017-05-19T07:09:37.978Z,26.52
2017-05-19T07:10:18.594Z,26.59
2017-05-19T07:10:59.234Z,26.63
2017-05-19T07:11:39.862Z,26.71
2017-05-19T07:12:20.474Z,26.68
2017-05-19T07:13:01.093Z,26.66
2017-05-19T07:13:41.697Z,26.7
2017-05-19T07:14:22.324Z,26.75
2017-05-19T07:15:03.009Z,26.73
2017-05-19T07:15:43.571Z,26.73
2017-05-19T07:16:24.317Z,26.74
2017-05-19T07:17:05.002Z,26.78
2017-05-19T07:17:45.576Z,26.81
2017-05-19T07:18:26.224Z,26.85
2017-05-19T07:19:06.860Z,26.81
2017-05-19T07:19:47.468Z,26.84
2017-05-19T07:20:28.096Z,26.9
2017-05-19T07:21:08.676Z,26.81
2017-05-19T07:21:49.332Z,26.89
2017-05-19T07:22:29.967Z,26.95
2017-05-19T07:23:10.573Z,26.95
2017-05-19T07:23:51.192Z,26.92
2017-05-19T07:24:31.801Z,26.93
2017-05-19T07:25:12.423Z,26.93
2017-05-19T07:25:53.030Z,26.93
2017-05-19T07:26:33.630Z,26.9
2017-05-19T07:27:14.428Z,27.02
2017-05-19T07:27:55.095Z,27.05
2017-05-19T07:28:35.738Z,27.02
2017-05-19T07:29:16.334Z,27.08
2017-05-19T07:29:56.959Z,27.03
2017-05-19T07:30:37.539Z,27.05
2017-05-19T07:31:18.139Z,27.11
2017-05-19T07:31:58.766Z,27.17
2017-05-19T07:32:39.384Z,27.15
2017-05-19T07:33:20.005Z,27.26
2017-05-19T07:34:00.586Z,27.33
2017-05-19T07:34:41.177Z,27.36
2017-05-19T07:35:21.778Z,27.37
2017-05-19T07:36:02.407Z,27.35
2017-05-19T07:36:43.104Z,27.35
2017-05-19T07:37:23.659Z,27.35
2017-05-19T07:38:04.269Z,27.35
2017-05-19T07:38:44.942Z,27.35
2017-05-19T07:39:25.688Z,27.39
2017-05-19T07:40:06.376Z,27.32
2017-05-19T07:40:46.984Z,27.29
2017-05-19T07:41:27.641Z,27.36
2017-05-19T07:42:08.275Z,27.39
2017-05-19T07:42:48.939Z,27.4
2017-05-19T07:43:29.638Z,27.35
2017-05-19T07:44:10.339Z,27.45
2017-05-19T07:44:50.999Z,27.37
2017-05-19T07:45:31.679Z,27.36
2017-05-19T07:46:12.293Z,27.3
2017-05-19T07:46:52.914Z,27.32
2017-05-19T07:47:33.548Z,27.22
2017-05-19T07:48:14.162Z,27.22
2017-05-19T07:48:54.744Z,27.25
2017-05-19T07:49:35.368Z,27.22
2017-05-19T07:50:16.013Z,27.18
2017-05-19T07:50:56.595Z,27.22
2017-05-19T07:51:37.411Z,27.27
2017-05-19T07:52:17.997Z,27.32
2017-05-19T07:52:58.598Z,27.26
2017-05-19T07:53:39.191Z,27.39
2017-05-19T07:54:19.790Z,27.42
2017-05-19T07:55:00.375Z,27.4
2017-05-19T07:55:41.065Z,27.45
2017-05-19T07:56:21.848Z,27.45
2017-05-19T07:57:02.490Z,27.4
2017-05-19T07:57:43.190Z,27.47
2017-05-19T07:58:23.814Z,27.39
2017-05-19T07:59:04.477Z,27.47
2017-05-19T07:59:45.121Z,27.4
2017-05-19T08:00:25.869Z,27.39
2017-05-19T08:01:06.485Z,27.55
2017-05-19T08:01:47.102Z,27.48
2017-05-19T08:02:27.750Z,27.47
2017-05-19T08:03:08.343Z,27.44
2017-05-19T08:03:48.954Z,27.49
2017-05-19T08:04:29.604Z,27.51
2017-05-19T08:05:10.192Z,27.48
2017-05-19T08:05:50.815Z,27.48
2017-05-19T08:06:31.545Z,27.49
2017-05-19T08:07:12.154Z,27.59
2017-05-19T08:07:52.757Z,27.64
2017-05-19T08:08:33.335Z,27.58
2017-05-19T08:09:14.022Z,27.64
2017-05-19T08:09:54.622Z,27.6
2017-05-19T08:10:35.217Z,27.65
2017-05-19T08:11:15.817Z,27.64
2017-05-19T08:11:56.417Z,27.55
2017-05-19T08:12:37.019Z,27.64
2017-05-19T08:13:17.622Z,27.55
2017-05-19T08:13:58.205Z,27.58
2017-05-19T08:14:38.845Z,27.58
2017-05-19T08:15:19.482Z,27.55
2017-05-19T08:16:00.110Z,27.68
2017-05-19T08:16:40.721Z,27.68
2017-05-19T08:17:21.335Z,27.7
2017-05-19T08:18:01.922Z,27.7
2017-05-19T08:18:42.519Z,27.74
2017-05-19T08:19:23.095Z,27.78
2017-05-19T08:20:03.702Z,27.7
2017-05-19T08:20:44.283Z,27.77
2017-05-19T08:21:24.918Z,27.74
2017-05-19T08:22:05.568Z,27.7
2017-05-19T08:22:46.331Z,27.68
2017-05-19T08:23:27.610Z,27.74
2017-05-19T08:24:08.836Z,27.74
2017-05-19T08:24:50.047Z,27.51
2017-05-19T08:25:31.166Z,27.58
2017-05-19T08:26:11.753Z,27.42
2017-05-19T08:26:52.363Z,27.51
2017-05-19T08:27:32.989Z,27.54
2017-05-19T08:28:13.621Z,27.51
2017-05-19T08:28:54.217Z,27.52
2017-05-19T08:29:34.826Z,27.52
2017-05-19T08:30:15.445Z,27.52
2017-05-19T08:30:56.055Z,27.58
2017-05-19T08:31:36.628Z,27.51
2017-05-19T08:32:17.225Z,27.54
2017-05-19T08:32:57.802Z,27.48
2017-05-19T08:33:38.393Z,27.54
2017-05-19T08:34:18.988Z,27.58
2017-05-19T08:34:59.573Z,27.55
2017-05-19T08:35:40.177Z,27.49
2017-05-19T08:36:20.761Z,27.51
2017-05-19T08:37:01.345Z,27.55
2017-05-19T08:37:41.936Z,27.54
2017-05-19T08:38:22.549Z,27.54
2017-05-19T08:39:03.147Z,27.54
2017-05-19T08:39:43.760Z,27.55
2017-05-19T08:40:24.312Z,27.49
2017-05-19T08:41:04.899Z,27.58
2017-05-19T08:41:45.492Z,27.52
2017-05-19T08:42:26.089Z,27.52
2017-05-19T08:43:06.691Z,27.58
2017-05-19T08:43:47.284Z,27.55
2017-05-19T08:44:27.863Z,27.55
2017-05-19T08:45:08.455Z,27.52
2017-05-19T08:45:49.065Z,27.54